首页
METAR-TAF:

METAR-TAF

机场 :

Sioux Gateway Airport (Col. Bud Day Field)

蘇城, 艾奥瓦州, 美国

纬度: 42-24-09N, 经度: 096-23-04W, 海拔: 335米

当前天气观测

该预报发布于46分钟前的16:54 UTC
风速10节,风向西南
温度 17°C
湿度 82%
气压 1011 hPa
能見度: 16.1公里
阴天层高于1500英尺

METAR: KSUX 241654Z 23010KT 10SM OVC015 17/14 A2985 RMK AO2 T01720139

时间: 12:40 (17:40 UTC)

预报

该预报发布于17分钟前的17:23 UTC
预报有效从24日的 18点(UTC)到 25日的 18点(UTC)
风速10节,风向西转西南,有时为18节阵风
能見度: 10公里
散云层高于1500英尺
从 24日的 2000点(UTC)
风速10节,风向西南
能見度: 10公里
天空无云
从 25日的 0600点(UTC)
风速5节,风向
能見度: 10公里
散云层高于20000英尺
从 25日的 1100点(UTC)
风速6节,风向北转西北
能見度: 10公里
散云层高于20000英尺

TAF: KSUX 241723Z 2418/2518 24010G18KT P6SM SCT015 FM242000 22010KT P6SM SKC FM250600 18005KT P6SM SCT200 FM251100 34006KT P6SM SCT200

超过4000个机场的气象观测和天气预报(METAR&TAF报告)。

可查询的气象台以黄色和红色小点在地图上表示。

将鼠标移到小点上方,可查看气象台名称。

然后点击查看天气观测和预报。

如需切换地图:点击带黑十字的绿色按钮放大地图;点击带横线的绿色按钮缩小地图;或者点击绿色箭头查看邻近地区的地图。


METAR-TAF: